Terminal Aerodrome Forecast
Issued by NWS Houston/Galveston TX

Home | Current Version | Previous Version | Text Only | Print | Product List | Glossary On
Versions: 1 2 3 4 5 6 7 8 9 10 11 12 13 14 15 16 17 18 19 20 21 22 23 24 25 26 27 28 29 30 31 32 33 34 35 36 37 38 39 40 41 42 43 44 45 46
000
FTUS44 KHGX 161731
TAFHOU
TAF
KHOU 161731Z 1618/1718 10011KT P6SM VCSH BKN080
     FM162200 07010KT P6SM -SHRA SCT025 OVC050
     FM170100 06015KT 4SM TSRA SCT007 OVC015CB
     FM170400 02011KT 4SM BR VCSH OVC010
     FM170700 33007KT 4SM BR BKN007
     FM171200 36003KT 6SM BR BKN010
     FM171700 07005KT P6SM SCT015=

USA.gov is the U.S. government's official web portal to all federal, state and local government web resources and services.